createdAt,value
2018-10-02T00:01:35.684Z,3.27
2018-10-02T00:04:05.359Z,6.03
2018-10-02T00:06:35.293Z,6.43
2018-10-02T00:09:06.152Z,5.90
2018-10-02T00:11:40.850Z,5.43
2018-10-02T00:14:18.937Z,3.70
2018-10-02T00:16:49.886Z,2.70
2018-10-02T00:19:20.199Z,5.00
2018-10-02T00:21:50.582Z,12.23
2018-10-02T00:24:20.096Z,3.60
2018-10-02T00:26:49.867Z,5.33
2018-10-02T00:29:21.005Z,4.30
2018-10-02T00:31:54.742Z,3.70
2018-10-02T00:34:26.059Z,4.50
2018-10-02T00:36:57.141Z,4.50
2018-10-02T00:39:27.766Z,3.20
2018-10-02T00:41:58.298Z,6.23
2018-10-02T00:44:27.409Z,3.10
2018-10-02T00:46:57.517Z,4.03
2018-10-02T00:49:27.181Z,4.50
2018-10-02T00:51:56.349Z,3.47
2018-10-02T00:54:25.463Z,4.10
2018-10-02T00:56:55.068Z,3.00
2018-10-02T00:59:24.212Z,3.77
2018-10-02T01:01:58.504Z,3.10
2018-10-02T01:04:27.607Z,3.57
2018-10-02T01:06:57.859Z,3.93
2018-10-02T01:09:27.090Z,3.67
2018-10-02T01:11:56.494Z,4.47
2018-10-02T01:14:25.836Z,3.90
2018-10-02T01:16:55.437Z,4.37
2018-10-02T01:19:24.758Z,2.90
2018-10-02T01:21:54.802Z,3.90
2018-10-02T01:24:24.053Z,4.00
2018-10-02T01:26:55.101Z,4.00
2018-10-02T01:29:24.225Z,3.40
2018-10-02T01:31:53.366Z,5.07
2018-10-02T01:34:22.649Z,4.77
2018-10-02T01:36:51.825Z,5.73
2018-10-02T01:39:21.025Z,5.43
2018-10-02T01:41:50.653Z,7.17
2018-10-02T01:44:19.831Z,4.50
2018-10-02T01:46:48.919Z,5.23
2018-10-02T01:49:22.480Z,5.30
2018-10-02T01:51:51.928Z,5.40
2018-10-02T01:54:21.048Z,7.03
2018-10-02T01:56:50.402Z,7.53
2018-10-02T01:59:19.709Z,5.30
2018-10-02T02:01:49.465Z,6.57
2018-10-02T02:04:18.689Z,7.07
2018-10-02T02:06:48.008Z,5.00
2018-10-02T02:09:17.511Z,6.27
2018-10-02T02:11:46.810Z,5.73
2018-10-02T02:14:16.100Z,4.93
2018-10-02T02:16:45.313Z,4.47
2018-10-02T02:19:14.583Z,5.00
2018-10-02T02:21:43.953Z,4.87
2018-10-02T02:24:12.992Z,4.80
2018-10-02T02:26:42.622Z,4.33
2018-10-02T02:29:11.700Z,4.50
2018-10-02T02:31:40.883Z,3.73
2018-10-02T02:34:10.068Z,4.27
2018-10-02T02:36:39.824Z,4.33
2018-10-02T02:39:09.579Z,4.30
2018-10-02T02:41:38.932Z,4.17
2018-10-02T02:44:08.141Z,5.03
2018-10-02T02:46:37.901Z,4.07
2018-10-02T02:49:12.957Z,4.93
2018-10-02T02:51:42.384Z,4.03
2018-10-02T02:54:12.149Z,3.87
2018-10-02T02:56:41.503Z,5.73
2018-10-02T02:59:10.727Z,3.83
2018-10-02T03:01:39.931Z,4.60
2018-10-02T03:04:09.557Z,4.43
2018-10-02T03:06:38.827Z,3.70
2018-10-02T03:09:08.829Z,4.00
2018-10-02T03:11:38.097Z,4.87
2018-10-02T03:14:07.364Z,4.80
2018-10-02T03:16:36.578Z,4.47
2018-10-02T03:19:05.793Z,3.90
2018-10-02T03:21:34.926Z,4.37
2018-10-02T03:24:04.119Z,4.50
2018-10-02T03:26:34.500Z,3.37
2018-10-02T03:29:03.722Z,4.00
2018-10-02T03:31:32.897Z,4.50
2018-10-02T03:34:06.781Z,5.40
2018-10-02T03:36:36.194Z,4.60
2018-10-02T03:39:08.031Z,5.10
2018-10-02T03:41:37.335Z,5.20
2018-10-02T03:44:06.552Z,6.57
2018-10-02T03:46:36.091Z,6.40
2018-10-02T03:49:05.209Z,5.83
2018-10-02T03:51:34.487Z,7.60
2018-10-02T03:54:04.309Z,4.97
2018-10-02T03:56:33.677Z,4.67
2018-10-02T03:59:03.119Z,5.80
2018-10-02T04:01:32.780Z,6.77
2018-10-02T04:04:01.881Z,6.90
2018-10-02T04:06:31.034Z,6.17
2018-10-02T04:09:00.711Z,6.50
2018-10-02T04:11:30.287Z,7.17
2018-10-02T04:13:59.461Z,5.10
2018-10-02T04:16:28.957Z,9.70
2018-10-02T04:18:58.215Z,5.40
2018-10-02T04:21:34.328Z,5.37
2018-10-02T04:24:05.019Z,5.63
2018-10-02T04:26:35.353Z,4.97
2018-10-02T04:29:05.138Z,4.50
2018-10-02T04:31:36.126Z,3.67
2018-10-02T04:34:05.970Z,4.57
2018-10-02T04:36:35.137Z,4.93
2018-10-02T04:39:06.953Z,4.10
2018-10-02T04:41:36.153Z,4.80
2018-10-02T04:44:05.279Z,4.97
2018-10-02T04:46:34.688Z,5.60
2018-10-02T04:49:04.071Z,4.03
2018-10-02T04:51:33.551Z,6.20
2018-10-02T04:54:02.669Z,5.67
2018-10-02T04:56:32.105Z,5.07
2018-10-02T04:59:06.228Z,5.77
2018-10-02T05:01:36.221Z,3.80
2018-10-02T05:04:05.431Z,4.80
2018-10-02T05:06:35.933Z,3.23
2018-10-02T05:09:07.006Z,5.23
2018-10-02T05:11:36.405Z,4.63
2018-10-02T05:14:06.870Z,4.33
2018-10-02T05:16:36.084Z,4.30
2018-10-02T05:19:06.105Z,5.03
2018-10-02T05:21:35.297Z,4.17
2018-10-02T05:24:04.617Z,4.10
2018-10-02T05:26:33.735Z,3.20
2018-10-02T05:29:05.045Z,3.40
2018-10-02T05:31:35.128Z,5.87
2018-10-02T05:34:04.817Z,5.60
2018-10-02T05:36:34.375Z,4.23
2018-10-02T05:44:57.197Z,3.57
2018-10-02T05:47:27.837Z,4.43
2018-10-02T05:49:58.188Z,4.30
2018-10-02T05:52:31.328Z,5.27
2018-10-02T05:55:01.522Z,5.57
2018-10-02T05:57:31.142Z,4.90
2018-10-02T06:00:01.134Z,4.27
2018-10-02T06:02:32.404Z,5.53
2018-10-02T06:05:02.127Z,52.57
2018-10-02T06:07:32.127Z,4.30
2018-10-02T06:10:01.731Z,4.43
2018-10-02T06:12:40.868Z,2.37
2018-10-02T06:15:21.615Z,4.87
2018-10-02T06:17:52.673Z,5.00
2018-10-02T06:20:22.182Z,4.60
2018-10-02T06:22:52.693Z,6.30
2018-10-02T06:25:22.369Z,3.17
2018-10-02T06:27:51.676Z,3.67
2018-10-02T06:30:23.279Z,3.60
2018-10-02T06:32:53.621Z,3.30
2018-10-02T06:35:23.337Z,4.00
2018-10-02T06:37:52.858Z,4.17
2018-10-02T06:40:23.162Z,3.30
2018-10-02T06:42:55.785Z,3.40
2018-10-02T06:45:25.303Z,3.70
2018-10-02T06:47:55.202Z,3.70
2018-10-02T06:50:29.316Z,2.97
2018-10-02T06:52:58.959Z,4.57
2018-10-02T06:55:29.321Z,3.97
2018-10-02T06:57:58.579Z,4.10
2018-10-02T07:00:29.502Z,5.13
2018-10-02T07:03:01.394Z,5.03
2018-10-02T07:06:33.403Z,4.27
2018-10-02T07:09:02.996Z,3.80
2018-10-02T07:11:32.787Z,3.87
2018-10-02T07:14:02.817Z,6.93
2018-10-02T07:16:32.684Z,4.13
2018-10-02T07:19:02.312Z,4.60
2018-10-02T07:21:34.193Z,4.90
2018-10-02T07:24:03.505Z,3.20
2018-10-02T07:26:32.823Z,3.60
2018-10-02T07:29:03.336Z,3.43
2018-10-02T07:31:32.536Z,3.60
2018-10-02T07:34:02.477Z,3.70
2018-10-02T07:36:34.568Z,3.47
2018-10-02T07:39:05.810Z,3.30
2018-10-02T07:41:37.266Z,3.50
2018-10-02T07:44:06.888Z,3.17
2018-10-02T07:46:38.655Z,3.50
2018-10-02T07:49:09.286Z,4.00
2018-10-02T07:51:41.654Z,4.03
2018-10-02T07:54:11.449Z,3.47
2018-10-02T07:56:41.842Z,3.20
2018-10-02T07:59:15.731Z,3.60
2018-10-02T08:01:50.748Z,3.70
2018-10-02T08:04:22.214Z,3.83
2018-10-02T08:06:54.250Z,4.87
2018-10-02T08:09:25.190Z,4.03
2018-10-02T08:11:56.111Z,3.47
2018-10-02T08:14:26.240Z,3.37
2018-10-02T08:16:57.701Z,3.57
2018-10-02T08:19:31.321Z,3.53
2018-10-02T08:22:02.431Z,3.00
2018-10-02T08:24:34.659Z,2.40
2018-10-02T08:27:06.076Z,3.00
2018-10-02T08:29:36.475Z,3.67
2018-10-02T08:32:07.550Z,2.90
2018-10-02T08:34:38.252Z,3.33
2018-10-02T08:37:09.385Z,2.80
2018-10-02T08:39:46.902Z,3.20
2018-10-02T08:42:18.365Z,3.40
2018-10-02T08:44:48.674Z,5.33
2018-10-02T08:47:19.309Z,4.50
2018-10-02T08:49:49.156Z,4.10
2018-10-02T08:52:20.381Z,4.27
2018-10-02T08:54:50.655Z,3.27
2018-10-02T09:00:02.291Z,5.70
2018-10-02T09:02:33.317Z,3.00
2018-10-02T09:05:03.961Z,3.83
2018-10-02T09:07:33.812Z,4.13
2018-10-02T09:10:12.790Z,3.90
2018-10-02T09:12:42.950Z,4.00
2018-10-02T09:15:14.146Z,4.53
2018-10-02T09:17:43.875Z,3.60
2018-10-02T09:20:14.430Z,5.40
2018-10-02T09:22:44.237Z,4.17
2018-10-02T09:25:14.868Z,6.10
2018-10-02T09:27:44.835Z,4.87
2018-10-02T09:30:21.238Z,4.23
2018-10-02T09:32:56.328Z,4.23
2018-10-02T09:35:31.225Z,3.90
2018-10-02T09:38:06.043Z,4.50
2018-10-02T09:40:42.155Z,4.40
2018-10-02T09:44:16.299Z,4.77
2018-10-02T09:46:46.012Z,4.47
2018-10-02T09:49:17.387Z,4.37
2018-10-02T09:51:49.724Z,4.60
2018-10-02T09:54:20.365Z,2.90
2018-10-02T09:56:52.547Z,4.43
2018-10-02T09:59:25.851Z,4.70
2018-10-02T10:02:02.181Z,4.83
2018-10-02T10:04:31.629Z,6.20
2018-10-02T10:07:01.386Z,6.80
2018-10-02T10:09:31.638Z,5.60
2018-10-02T10:12:03.862Z,15.87
2018-10-02T10:14:34.866Z,5.17
2018-10-02T10:17:05.339Z,4.20
2018-10-02T10:19:36.322Z,5.53
2018-10-02T10:22:18.553Z,4.30
2018-10-02T10:24:48.664Z,5.00
2018-10-02T10:27:26.824Z,5.33
2018-10-02T10:30:02.813Z,4.20
2018-10-02T10:32:34.664Z,6.10
2018-10-02T10:35:06.337Z,4.80
2018-10-02T10:37:38.583Z,4.40
2018-10-02T10:40:12.418Z,5.23
2018-10-02T10:42:48.556Z,5.00
2018-10-02T10:45:20.117Z,10.73
2018-10-02T10:47:53.352Z,11.20
2018-10-02T10:50:27.037Z,6.60
2018-10-02T10:52:58.845Z,4.83
2018-10-02T10:55:32.210Z,3.80
2018-10-02T10:58:02.396Z,21.20
2018-10-02T11:00:32.371Z,5.07
2018-10-02T11:03:05.750Z,8.00
2018-10-02T11:05:38.469Z,6.27
2018-10-02T11:11:10.047Z,5.07
2018-10-02T11:13:42.148Z,6.43
2018-10-02T11:16:12.637Z,8.70
2018-10-02T11:18:44.457Z,5.30
2018-10-02T11:24:14.946Z,4.93
2018-10-02T11:26:46.421Z,6.13
2018-10-02T11:29:16.846Z,7.90
2018-10-02T11:31:47.464Z,8.20
2018-10-02T11:34:21.451Z,6.67
2018-10-02T11:36:57.733Z,6.47
2018-10-02T11:39:27.902Z,5.27
2018-10-02T11:42:03.708Z,4.40
2018-10-02T11:44:40.915Z,5.90
2018-10-02T11:47:11.649Z,4.83
2018-10-02T11:49:53.328Z,6.60
2018-10-02T11:52:26.844Z,7.27
2018-10-02T11:55:01.528Z,9.43
2018-10-02T11:57:32.458Z,6.80
2018-10-02T12:00:03.863Z,5.20
2018-10-02T12:02:35.877Z,37.80
2018-10-02T12:07:49.787Z,7.03
2018-10-02T12:10:25.433Z,4.83
2018-10-02T12:12:58.052Z,6.20
2018-10-02T12:15:31.086Z,13.03
2018-10-02T12:18:04.296Z,6.70
2018-10-02T12:20:37.751Z,5.50
2018-10-02T12:23:08.038Z,6.27
2018-10-02T12:25:42.755Z,8.13
2018-10-02T12:28:14.565Z,3.00
2018-10-02T12:30:44.764Z,4.40
2018-10-02T12:33:15.688Z,3.33
2018-10-02T12:35:50.070Z,6.30
2018-10-02T12:38:20.656Z,5.93
2018-10-02T12:41:12.188Z,4.73
2018-10-02T12:43:53.403Z,2.63
2018-10-02T12:46:25.750Z,3.03
2018-10-02T12:48:58.738Z,6.60
2018-10-02T12:51:34.812Z,3.77
2018-10-02T12:54:06.818Z,3.03
2018-10-02T12:56:36.591Z,2.30
2018-10-02T12:59:08.259Z,3.17
2018-10-02T13:01:39.405Z,2.40
2018-10-02T13:04:13.113Z,2.60
2018-10-02T13:06:56.771Z,3.00
2018-10-02T13:09:36.050Z,2.70
2018-10-02T13:12:11.551Z,85.43
2018-10-02T13:14:44.274Z,14.73
2018-10-02T13:17:18.065Z,2.60
2018-10-02T13:19:48.605Z,2.97
2018-10-02T13:22:20.560Z,2.80
2018-10-02T13:24:56.578Z,3.67
2018-10-02T13:27:27.364Z,3.53
2018-10-02T13:29:59.341Z,3.90
2018-10-02T13:32:29.257Z,3.63
2018-10-02T13:35:03.138Z,5.10
2018-10-02T13:37:34.365Z,3.73
2018-10-02T13:40:05.266Z,4.80
2018-10-02T13:42:36.521Z,3.53
2018-10-02T13:45:07.193Z,5.70
2018-10-02T13:47:45.947Z,17.67
2018-10-02T13:50:20.376Z,7.53
2018-10-02T13:52:57.525Z,7.60
2018-10-02T13:55:32.509Z,4.00
2018-10-02T13:58:05.673Z,5.90
2018-10-02T14:00:36.841Z,4.03
2018-10-02T14:03:16.408Z,5.47
2018-10-02T14:05:48.454Z,4.10
2018-10-02T14:08:24.592Z,8.00
2018-10-02T14:10:57.579Z,10.80
2018-10-02T14:13:27.835Z,5.57
2018-10-02T14:15:58.683Z,4.40
2018-10-02T14:18:33.686Z,5.10
2018-10-02T14:21:17.108Z,5.77
2018-10-02T14:24:06.585Z,6.00
2018-10-02T14:26:38.273Z,5.73
2018-10-02T14:29:15.685Z,5.70
2018-10-02T14:31:48.816Z,5.87
2018-10-02T14:34:24.363Z,6.67
2018-10-02T14:37:07.242Z,6.70
2018-10-02T14:39:37.699Z,6.63
2018-10-02T14:42:10.459Z,6.20
2018-10-02T14:44:42.620Z,7.60
2018-10-02T14:47:18.416Z,10.47
2018-10-02T14:50:24.814Z,7.13
2018-10-02T14:53:06.640Z,12.23
2018-10-02T14:55:37.844Z,9.73
2018-10-02T14:58:39.279Z,10.57
2018-10-02T15:01:08.758Z,9.90
2018-10-02T15:03:42.756Z,10.40
2018-10-02T15:06:14.653Z,15.83
2018-10-02T15:08:44.657Z,15.83
2018-10-02T15:11:16.820Z,9.90
2018-10-02T15:13:51.732Z,10.33
2018-10-02T15:16:30.797Z,11.60
2018-10-02T15:21:37.629Z,11.83
2018-10-02T15:24:08.879Z,14.23
2018-10-02T15:26:44.275Z,13.13
2018-10-02T15:29:14.595Z,12.50
2018-10-02T15:31:44.732Z,13.00
2018-10-02T15:34:30.276Z,12.57
2018-10-02T15:37:00.115Z,12.20
2018-10-02T15:39:31.363Z,12.33
2018-10-02T15:42:02.508Z,13.53
2018-10-02T15:44:33.146Z,12.63
2018-10-02T15:47:12.979Z,13.10
2018-10-02T15:49:45.236Z,11.50
2018-10-02T15:52:14.775Z,14.93
2018-10-02T15:54:45.989Z,11.97
2018-10-02T15:57:16.564Z,11.90
2018-10-02T15:59:50.557Z,10.17
2018-10-02T16:02:22.973Z,11.27
2018-10-02T16:04:53.720Z,11.27
2018-10-02T16:07:25.868Z,11.47
2018-10-02T16:10:07.799Z,9.57
2018-10-02T16:12:38.439Z,11.53
2018-10-02T16:15:08.969Z,14.07
2018-10-02T16:17:40.401Z,13.70
2018-10-02T16:20:31.505Z,11.50
2018-10-02T16:23:14.441Z,10.17
2018-10-02T16:25:46.451Z,11.73
2018-10-02T16:28:25.922Z,9.57
2018-10-02T16:33:59.275Z,17.67
2018-10-02T16:36:31.104Z,18.07
2018-10-02T16:39:06.317Z,16.23
2018-10-02T16:41:41.192Z,13.73
2018-10-02T16:44:13.157Z,13.57
2018-10-02T16:46:46.442Z,18.50
2018-10-02T16:49:22.013Z,15.17
2018-10-02T16:51:55.347Z,15.40
2018-10-02T16:54:34.962Z,25.17
2018-10-02T16:57:09.297Z,28.87
2018-10-02T16:59:45.280Z,22.70
2018-10-02T17:02:22.698Z,16.97
2018-10-02T17:04:55.164Z,32.50
2018-10-02T17:07:28.475Z,19.97
2018-10-02T17:10:04.537Z,18.00
2018-10-02T17:12:36.408Z,21.97
2018-10-02T17:15:13.300Z,19.57
2018-10-02T17:17:50.391Z,18.50
2018-10-02T17:20:25.428Z,21.23
2018-10-02T17:23:15.729Z,20.40
2018-10-02T17:25:57.971Z,17.60
2018-10-02T17:28:34.416Z,21.50
2018-10-02T17:33:56.342Z,19.03
2018-10-02T17:36:29.304Z,18.40
2018-10-02T17:39:08.463Z,18.77
2018-10-02T17:41:47.572Z,46.73
2018-10-02T17:44:40.058Z,21.97
2018-10-02T17:47:12.365Z,23.93
2018-10-02T17:49:45.781Z,27.90
2018-10-02T17:52:21.707Z,35.40
2018-10-02T17:55:03.289Z,33.70
2018-10-02T17:57:38.939Z,37.80
2018-10-02T18:00:21.496Z,67.83
2018-10-02T18:02:54.671Z,37.87
2018-10-02T18:05:29.069Z,28.80
2018-10-02T18:08:15.257Z,31.00
2018-10-02T18:10:51.798Z,22.73
2018-10-02T18:13:31.291Z,41.57
2018-10-02T18:21:51.609Z,27.10
2018-10-02T18:27:22.570Z,22.87
2018-10-02T18:32:53.941Z,52.40
2018-10-02T18:35:32.210Z,41.00
2018-10-02T18:38:07.423Z,33.73
2018-10-02T18:40:42.761Z,32.10
2018-10-02T18:43:47.635Z,29.70
2018-10-02T18:46:23.093Z,43.80
2018-10-02T18:49:02.676Z,42.58
2018-10-02T18:51:40.638Z,27.70
2018-10-02T18:54:13.624Z,37.80
2018-10-02T18:56:45.090Z,27.50
2018-10-02T18:59:15.908Z,38.47
2018-10-02T19:02:04.464Z,26.90
2018-10-02T19:04:53.413Z,38.30
2018-10-02T19:07:29.190Z,33.27
2018-10-02T19:12:48.330Z,31.07
2018-10-02T19:15:34.928Z,29.33
2018-10-02T19:18:12.213Z,32.17
2018-10-02T19:23:32.453Z,45.30
2018-10-02T19:26:11.735Z,38.33
2018-10-02T19:28:57.450Z,66.37
2018-10-02T19:31:40.615Z,68.57
2018-10-02T19:34:23.512Z,34.27
2018-10-02T19:37:01.693Z,24.90
2018-10-02T19:42:22.919Z,32.60
2018-10-02T19:45:00.650Z,57.53
2018-10-02T19:47:48.401Z,41.93
2018-10-02T19:50:35.744Z,56.83
2018-10-02T19:56:00.345Z,39.97
2018-10-02T19:58:33.855Z,36.13
2018-10-02T20:01:12.390Z,39.00
2018-10-02T20:04:08.441Z,30.87
2018-10-02T20:06:57.717Z,57.23
2018-10-02T20:12:38.486Z,40.70
2018-10-02T20:15:29.613Z,29.97
2018-10-02T20:18:28.314Z,45.77
2018-10-02T20:21:03.009Z,41.37
2018-10-02T20:23:34.319Z,31.47
2018-10-02T20:26:22.233Z,37.80
2018-10-02T20:29:10.143Z,79.07
2018-10-02T20:31:53.864Z,55.13
2018-10-02T20:34:36.365Z,33.30
2018-10-02T20:37:36.413Z,89.07
2018-10-02T20:40:12.458Z,327.90
2018-10-02T20:45:58.033Z,37.17
2018-10-02T20:48:37.632Z,37.13
2018-10-02T20:51:08.434Z,36.10
2018-10-02T20:53:43.353Z,30.67
2018-10-02T20:56:16.042Z,52.20
2018-10-02T21:02:18.034Z,41.67
2018-10-02T21:04:51.056Z,41.43
2018-10-02T21:07:27.980Z,48.57
2018-10-02T21:10:03.408Z,40.10
2018-10-02T21:17:21.411Z,80.90
2018-10-02T21:19:57.368Z,44.27
2018-10-02T21:22:38.733Z,39.17
2018-10-02T21:25:27.314Z,87.03
2018-10-02T21:28:09.057Z,53.80
2018-10-02T21:30:40.246Z,49.83
2018-10-02T21:33:13.177Z,48.30
2018-10-02T21:35:49.217Z,94.33
2018-10-02T21:38:28.768Z,82.73
2018-10-02T21:40:59.291Z,42.50
2018-10-02T21:43:35.285Z,50.77
2018-10-02T21:46:11.263Z,48.33
2018-10-02T21:48:49.426Z,58.20
2018-10-02T21:51:25.167Z,155.47
2018-10-02T21:53:58.769Z,163.37
2018-10-02T21:56:33.969Z,157.20
2018-10-02T21:59:11.364Z,121.60
2018-10-02T22:04:52.307Z,152.60
2018-10-02T22:07:25.735Z,107.10
2018-10-02T22:10:03.992Z,38.73
2018-10-02T22:12:41.537Z,40.00
2018-10-02T22:15:13.777Z,104.17
2018-10-02T22:17:51.877Z,174.17
2018-10-02T22:20:25.204Z,134.67
2018-10-02T22:23:09.891Z,56.90
2018-10-02T22:25:49.465Z,49.53
2018-10-02T22:28:37.380Z,44.63
2018-10-02T22:31:28.055Z,127.73
2018-10-02T22:34:13.676Z,57.67
2018-10-02T22:37:00.336Z,37.83
2018-10-02T22:39:37.424Z,120.23
2018-10-02T22:42:20.616Z,47.53
2018-10-02T22:45:06.202Z,98.60
2018-10-02T23:31:06.702Z,62.53
2018-10-02T23:33:36.400Z,54.23
2018-10-02T23:36:07.516Z,89.43
2018-10-02T23:41:30.584Z,85.00
2018-10-02T23:44:10.949Z,68.27
2018-10-02T23:46:48.797Z,89.57
2018-10-02T23:49:29.255Z,56.70
2018-10-02T23:52:12.896Z,82.33
2018-10-02T23:54:52.944Z,43.57
2018-10-02T23:57:23.452Z,45.97
2018-10-02T23:59:53.185Z,53.97
